sensor_id;sensor_type;location;lat;lon;timestamp;pressure;altitude;pressure_sealevel;temperature;humidity
46015;BME280;36844;51.898;-0.874;2022-07-29T00:00:32;100762.03;;;21.55;
46015;BME280;36844;51.898;-0.874;2022-07-29T00:03:17;100766.72;;;21.54;
46015;BME280;36844;51.898;-0.874;2022-07-29T00:06:03;100760.53;;;21.54;
46015;BME280;36844;51.898;-0.874;2022-07-29T00:08:49;100756.63;;;21.55;
46015;BME280;36844;51.898;-0.874;2022-07-29T00:11:34;100761.72;;;21.53;
46015;BME280;36844;51.898;-0.874;2022-07-29T00:14:20;100759.00;;;21.53;
46015;BME280;36844;51.898;-0.874;2022-07-29T00:17:05;100763.66;;;21.52;
46015;BME280;36844;51.898;-0.874;2022-07-29T00:19:51;100755.91;;;21.51;
46015;BME280;36844;51.898;-0.874;2022-07-29T00:22:37;100762.09;;;21.51;
46015;BME280;36844;51.898;-0.874;2022-07-29T00:25:23;100760.59;;;21.50;
46015;BME280;36844;51.898;-0.874;2022-07-29T00:28:08;100766.00;;;21.50;
46015;BME280;36844;51.898;-0.874;2022-07-29T00:30:54;100764.03;;;21.51;
46015;BME280;36844;51.898;-0.874;2022-07-29T00:33:39;100759.84;;;21.50;
46015;BME280;36844;51.898;-0.874;2022-07-29T00:36:25;100759.06;;;21.49;
46015;BME280;36844;51.898;-0.874;2022-07-29T00:39:11;100756.75;;;21.48;
46015;BME280;36844;51.898;-0.874;2022-07-29T00:41:56;100761.00;;;21.49;
46015;BME280;36844;51.898;-0.874;2022-07-29T00:44:42;100749.38;;;21.48;
46015;BME280;36844;51.898;-0.874;2022-07-29T00:47:27;100747.84;;;21.47;
46015;BME280;36844;51.898;-0.874;2022-07-29T00:50:13;100749.06;;;21.46;
46015;BME280;36844;51.898;-0.874;2022-07-29T00:52:59;100746.34;;;21.46;
46015;BME280;36844;51.898;-0.874;2022-07-29T00:55:45;100742.84;;;21.46;
46015;BME280;36844;51.898;-0.874;2022-07-29T00:58:30;100738.97;;;21.47;
46015;BME280;36844;51.898;-0.874;2022-07-29T01:01:16;100736.66;;;21.45;
46015;BME280;36844;51.898;-0.874;2022-07-29T01:04:02;100733.94;;;21.45;
46015;BME280;36844;51.898;-0.874;2022-07-29T01:06:48;100737.81;;;21.44;
46015;BME280;36844;51.898;-0.874;2022-07-29T01:09:34;100737.09;;;21.44;
46015;BME280;36844;51.898;-0.874;2022-07-29T01:12:24;100736.31;;;21.43;
46015;BME280;36844;51.898;-0.874;2022-07-29T01:15:10;100740.22;;;21.42;
46015;BME280;36844;51.898;-0.874;2022-07-29T01:26:55;100734.44;;;21.40;
46015;BME280;36844;51.898;-0.874;2022-07-29T01:29:44;100729.00;;;21.40;
46015;BME280;36844;51.898;-0.874;2022-07-29T01:32:31;100733.66;;;21.40;
46015;BME280;36844;51.898;-0.874;2022-07-29T01:35:51;100727.47;;;21.39;
46015;BME280;36844;51.898;-0.874;2022-07-29T01:38:30;100730.94;;;21.40;
46015;BME280;36844;51.898;-0.874;2022-07-29T01:41:16;100732.13;;;21.39;
46015;BME280;36844;51.898;-0.874;2022-07-29T01:44:07;100728.66;;;21.38;
46015;BME280;36844;51.898;-0.874;2022-07-29T01:46:56;100730.59;;;21.38;
46015;BME280;36844;51.898;-0.874;2022-07-29T01:49:47;100722.47;;;21.38;
46015;BME280;36844;51.898;-0.874;2022-07-29T01:52:39;100722.88;;;21.36;
46015;BME280;36844;51.898;-0.874;2022-07-29T01:55:38;100734.50;;;21.37;
46015;BME280;36844;51.898;-0.874;2022-07-29T01:58:25;100735.66;;;21.36;
46015;BME280;36844;51.898;-0.874;2022-07-29T02:01:12;100727.53;;;21.36;
46015;BME280;36844;51.898;-0.874;2022-07-29T02:03:59;100731.41;;;21.35;
46015;BME280;36844;51.898;-0.874;2022-07-29T02:06:45;100734.13;;;21.35;
46015;BME280;36844;51.898;-0.874;2022-07-29T02:09:33;100744.22;;;21.34;
46015;BME280;36844;51.898;-0.874;2022-07-29T02:12:19;100736.09;;;21.34;
46015;BME280;36844;51.898;-0.874;2022-07-29T02:15:06;100739.97;;;21.33;
46015;BME280;36844;51.898;-0.874;2022-07-29T02:17:56;100735.72;;;21.32;
46015;BME280;36844;51.898;-0.874;2022-07-29T02:20:44;100731.06;;;21.33;
46015;BME280;36844;51.898;-0.874;2022-07-29T02:23:32;100734.53;;;21.33;
46015;BME280;36844;51.898;-0.874;2022-07-29T02:26:21;100743.84;;;21.32;
46015;BME280;36844;51.898;-0.874;2022-07-29T02:29:07;100742.31;;;21.31;
46015;BME280;36844;51.898;-0.874;2022-07-29T02:31:53;100738.88;;;21.31;
46015;BME280;36844;51.898;-0.874;2022-07-29T02:34:40;100736.16;;;21.31;
46015;BME280;36844;51.898;-0.874;2022-07-29T02:37:26;100738.47;;;21.29;
46015;BME280;36844;51.898;-0.874;2022-07-29T02:40:13;100735.38;;;21.30;
46015;BME280;36844;51.898;-0.874;2022-07-29T02:43:01;100733.84;;;21.29;
46015;BME280;36844;51.898;-0.874;2022-07-29T02:45:47;100736.53;;;21.29;
46015;BME280;36844;51.898;-0.874;2022-07-29T02:48:41;100739.25;;;21.29;
46015;BME280;36844;51.898;-0.874;2022-07-29T02:51:35;100738.94;;;21.27;
46015;BME280;36844;51.898;-0.874;2022-07-29T02:57:21;100736.22;;;21.27;
46015;BME280;36844;51.898;-0.874;2022-07-29T03:00:08;100735.44;;;21.27;
46015;BME280;36844;51.898;-0.874;2022-07-29T03:02:56;100742.78;;;21.26;
46015;BME280;36844;51.898;-0.874;2022-07-29T03:05:42;100729.25;;;21.26;
46015;BME280;36844;51.898;-0.874;2022-07-29T03:08:28;100725.75;;;21.26;
46015;BME280;36844;51.898;-0.874;2022-07-29T03:11:14;100725.00;;;21.25;
46015;BME280;36844;51.898;-0.874;2022-07-29T03:14:00;100731.59;;;21.24;
46015;BME280;36844;51.898;-0.874;2022-07-29T03:16:46;100726.94;;;21.25;
46015;BME280;36844;51.898;-0.874;2022-07-29T03:19:32;100724.66;;;21.23;
46015;BME280;36844;51.898;-0.874;2022-07-29T03:22:17;100724.66;;;21.23;
46015;BME280;36844;51.898;-0.874;2022-07-29T03:25:10;100721.19;;;21.23;
46015;BME280;36844;51.898;-0.874;2022-07-29T03:27:56;100734.72;;;21.23;
46015;BME280;36844;51.898;-0.874;2022-07-29T03:30:41;100720.41;;;21.22;
46015;BME280;36844;51.898;-0.874;2022-07-29T03:33:27;100716.91;;;21.22;
46015;BME280;36844;51.898;-0.874;2022-07-29T03:36:14;100722.34;;;21.22;
46015;BME280;36844;51.898;-0.874;2022-07-29T03:38:59;100726.22;;;21.21;
46015;BME280;36844;51.898;-0.874;2022-07-29T03:41:46;100731.66;;;21.21;
46015;BME280;36844;51.898;-0.874;2022-07-29T03:44:33;100736.28;;;21.20;
46015;BME280;36844;51.898;-0.874;2022-07-29T03:47:20;100742.91;;;21.19;
46015;BME280;36844;51.898;-0.874;2022-07-29T03:50:08;100745.63;;;21.19;
46015;BME280;36844;51.898;-0.874;2022-07-29T03:52:55;100741.38;;;21.18;
46015;BME280;36844;51.898;-0.874;2022-07-29T03:55:42;100740.59;;;21.18;
46015;BME280;36844;51.898;-0.874;2022-07-29T03:58:28;100747.97;;;21.17;
46015;BME280;36844;51.898;-0.874;2022-07-29T04:01:15;100737.13;;;21.17;
46015;BME280;36844;51.898;-0.874;2022-07-29T04:04:03;100731.72;;;21.17;
46015;BME280;36844;51.898;-0.874;2022-07-29T04:06:49;100732.88;;;21.16;
46015;BME280;36844;51.898;-0.874;2022-07-29T04:09:35;100739.47;;;21.15;
46015;BME280;36844;51.898;-0.874;2022-07-29T04:12:20;100736.78;;;21.15;
46015;BME280;36844;51.898;-0.874;2022-07-29T04:15:06;100743.38;;;21.14;
46015;BME280;36844;51.898;-0.874;2022-07-29T04:17:52;100743.38;;;21.14;
46015;BME280;36844;51.898;-0.874;2022-07-29T04:20:38;100742.59;;;21.14;
46015;BME280;36844;51.898;-0.874;2022-07-29T04:23:23;100749.56;;;21.15;
46015;BME280;36844;51.898;-0.874;2022-07-29T04:26:09;100741.81;;;21.13;
46015;BME280;36844;51.898;-0.874;2022-07-29T04:28:56;100745.72;;;21.12;
46015;BME280;36844;51.898;-0.874;2022-07-29T04:31:41;100750.41;;;21.12;
46015;BME280;36844;51.898;-0.874;2022-07-29T04:34:27;100755.03;;;21.11;
46015;BME280;36844;51.898;-0.874;2022-07-29T04:37:13;100758.91;;;21.10;
46015;BME280;36844;51.898;-0.874;2022-07-29T04:39:58;100754.25;;;21.11;
46015;BME280;36844;51.898;-0.874;2022-07-29T04:42:44;100754.25;;;21.11;
46015;BME280;36844;51.898;-0.874;2022-07-29T04:45:29;100746.53;;;21.09;
46015;BME280;36844;51.898;-0.874;2022-07-29T04:48:15;100752.72;;;21.10;
46015;BME280;36844;51.898;-0.874;2022-07-29T04:51:01;100753.91;;;21.09;
46015;BME280;36844;51.898;-0.874;2022-07-29T04:53:47;100758.56;;;21.08;
46015;BME280;36844;51.898;-0.874;2022-07-29T04:56:33;100769.41;;;21.08;
46015;BME280;36844;51.898;-0.874;2022-07-29T04:59:18;100766.69;;;21.08;
46015;BME280;36844;51.898;-0.874;2022-07-29T05:02:04;100769.78;;;21.07;
46015;BME280;36844;51.898;-0.874;2022-07-29T05:04:49;100767.09;;;21.07;
46015;BME280;36844;51.898;-0.874;2022-07-29T05:07:35;100760.91;;;21.06;
46015;BME280;36844;51.898;-0.874;2022-07-29T05:10:20;100756.66;;;21.05;
46015;BME280;36844;51.898;-0.874;2022-07-29T05:13:06;100755.47;;;21.06;
46015;BME280;36844;51.898;-0.874;2022-07-29T05:15:52;100754.69;;;21.06;
46015;BME280;36844;51.898;-0.874;2022-07-29T05:18:38;100747.78;;;21.05;
46015;BME280;36844;51.898;-0.874;2022-07-29T05:21:24;100760.56;;;21.04;
46015;BME280;36844;51.898;-0.874;2022-07-29T05:24:10;100757.84;;;21.04;
46015;BME280;36844;51.898;-0.874;2022-07-29T05:26:55;100761.72;;;21.03;
46015;BME280;36844;51.898;-0.874;2022-07-29T05:29:41;100759.78;;;21.04;
46015;BME280;36844;51.898;-0.874;2022-07-29T05:32:26;100764.44;;;21.03;
46015;BME280;36844;51.898;-0.874;2022-07-29T05:35:12;100762.50;;;21.04;
46015;BME280;36844;51.898;-0.874;2022-07-29T05:37:58;100771.03;;;21.02;
46015;BME280;36844;51.898;-0.874;2022-07-29T05:40:44;100766.38;;;21.03;
46015;BME280;36844;51.898;-0.874;2022-07-29T05:43:29;100772.19;;;21.01;
46015;BME280;36844;51.898;-0.874;2022-07-29T05:46:15;100769.06;;;21.03;
46015;BME280;36844;51.898;-0.874;2022-07-29T05:49:01;100769.50;;;21.01;
46015;BME280;36844;51.898;-0.874;2022-07-29T05:51:48;100777.63;;;21.01;
46015;BME280;36844;51.898;-0.874;2022-07-29T05:54:34;100780.31;;;21.01;
46015;BME280;36844;51.898;-0.874;2022-07-29T05:57:21;100780.31;;;21.01;
46015;BME280;36844;51.898;-0.874;2022-07-29T06:00:07;100783.03;;;21.01;
46015;BME280;36844;51.898;-0.874;2022-07-29T06:02:53;100788.44;;;21.01;
46015;BME280;36844;51.898;-0.874;2022-07-29T06:05:38;100787.69;;;21.01;
46015;BME280;36844;51.898;-0.874;2022-07-29T06:08:24;100791.16;;;21.01;
46015;BME280;36844;51.898;-0.874;2022-07-29T06:11:09;100791.56;;;21.00;
46015;BME280;36844;51.898;-0.874;2022-07-29T06:13:55;100792.34;;;21.00;
46015;BME280;36844;51.898;-0.874;2022-07-29T06:16:40;100784.22;;;21.00;
46015;BME280;36844;51.898;-0.874;2022-07-29T06:19:26;100788.44;;;21.01;
46015;BME280;36844;51.898;-0.874;2022-07-29T06:22:12;100791.56;;;21.00;
46015;BME280;36844;51.898;-0.874;2022-07-29T06:25:00;100785.41;;;20.99;
46015;BME280;36844;51.898;-0.874;2022-07-29T06:27:46;100783.84;;;20.98;
46015;BME280;36844;51.898;-0.874;2022-07-29T06:30:32;100781.16;;;20.98;
46015;BME280;36844;51.898;-0.874;2022-07-29T06:33:17;100783.84;;;20.98;
46015;BME280;36844;51.898;-0.874;2022-07-29T06:36:04;100784.63;;;20.99;
46015;BME280;36844;51.898;-0.874;2022-07-29T06:38:50;100774.19;;;20.97;
46015;BME280;36844;51.898;-0.874;2022-07-29T06:41:36;100773.44;;;20.97;
46015;BME280;36844;51.898;-0.874;2022-07-29T06:44:22;100783.50;;;20.96;
46015;BME280;36844;51.898;-0.874;2022-07-29T06:47:07;100793.59;;;20.96;
46015;BME280;36844;51.898;-0.874;2022-07-29T06:49:53;100797.03;;;20.96;
46015;BME280;36844;51.898;-0.874;2022-07-29T06:52:38;100790.88;;;20.96;
46015;BME280;36844;51.898;-0.874;2022-07-29T06:55:24;100799.75;;;20.96;
46015;BME280;36844;51.898;-0.874;2022-07-29T06:58:10;100797.03;;;20.96;
46015;BME280;36844;51.898;-0.874;2022-07-29T07:00:56;100804.75;;;20.98;
46015;BME280;36844;51.898;-0.874;2022-07-29T07:03:42;100804.75;;;20.98;
46015;BME280;36844;51.898;-0.874;2022-07-29T07:06:27;100798.94;;;20.99;
46015;BME280;36844;51.898;-0.874;2022-07-29T07:09:14;100800.09;;;20.98;
46015;BME280;36844;51.898;-0.874;2022-07-29T07:11:59;100802.81;;;20.98;
46015;BME280;36844;51.898;-0.874;2022-07-29T07:14:45;100803.19;;;21.00;
46015;BME280;36844;51.898;-0.874;2022-07-29T07:17:30;100802.41;;;21.00;
46015;BME280;36844;51.898;-0.874;2022-07-29T07:20:16;100801.66;;;20.99;
46015;BME280;36844;51.898;-0.874;2022-07-29T07:23:02;100797.75;;;21.00;
46015;BME280;36844;51.898;-0.874;2022-07-29T07:25:48;100793.88;;;21.01;
46015;BME280;36844;51.898;-0.874;2022-07-29T07:28:34;100800.06;;;21.02;
46015;BME280;36844;51.898;-0.874;2022-07-29T07:31:19;100792.72;;;21.02;
46015;BME280;36844;51.898;-0.874;2022-07-29T07:34:05;100801.19;;;21.04;
46015;BME280;36844;51.898;-0.874;2022-07-29T07:36:50;100802.72;;;21.05;
46015;BME280;36844;51.898;-0.874;2022-07-29T07:39:36;100811.59;;;21.06;
46015;BME280;36844;51.898;-0.874;2022-07-29T07:42:21;100813.13;;;21.07;
46015;BME280;36844;51.898;-0.874;2022-07-29T07:45:07;100810.78;;;21.09;
46015;BME280;36844;51.898;-0.874;2022-07-29T07:47:54;100811.53;;;21.09;
46015;BME280;36844;51.898;-0.874;2022-07-29T07:50:40;100813.09;;;21.10;
46015;BME280;36844;51.898;-0.874;2022-07-29T07:53:25;100810.00;;;21.12;
46015;BME280;36844;51.898;-0.874;2022-07-29T07:56:11;100802.63;;;21.12;
46015;BME280;36844;51.898;-0.874;2022-07-29T07:58:56;100808.41;;;21.14;
46015;BME280;36844;51.898;-0.874;2022-07-29T08:01:42;100810.69;;;21.16;
46015;BME280;36844;51.898;-0.874;2022-07-29T08:04:27;100809.91;;;21.15;
46015;BME280;36844;51.898;-0.874;2022-07-29T08:07:13;100804.50;;;21.15;
46015;BME280;36844;51.898;-0.874;2022-07-29T08:10:00;100809.16;;;21.15;
46015;BME280;36844;51.898;-0.874;2022-07-29T08:12:45;100809.16;;;21.15;
46015;BME280;36844;51.898;-0.874;2022-07-29T08:15:32;100807.63;;;21.14;
46015;BME280;36844;51.898;-0.874;2022-07-29T08:18:18;100808.03;;;21.12;
46015;BME280;36844;51.898;-0.874;2022-07-29T08:21:04;100801.88;;;21.12;
46015;BME280;36844;51.898;-0.874;2022-07-29T08:23:49;100801.88;;;21.12;
46015;BME280;36844;51.898;-0.874;2022-07-29T08:26:37;100810.00;;;21.12;
46015;BME280;36844;51.898;-0.874;2022-07-29T08:29:23;100809.22;;;21.11;
46015;BME280;36844;51.898;-0.874;2022-07-29T08:32:08;100803.03;;;21.11;
46015;BME280;36844;51.898;-0.874;2022-07-29T08:34:54;100804.97;;;21.10;
46015;BME280;36844;51.898;-0.874;2022-07-29T08:37:40;100806.91;;;21.10;
46015;BME280;36844;51.898;-0.874;2022-07-29T08:40:25;100799.94;;;21.09;
46015;BME280;36844;51.898;-0.874;2022-07-29T08:43:11;100808.50;;;21.07;
46015;BME280;36844;51.898;-0.874;2022-07-29T08:45:56;100806.13;;;21.09;
46015;BME280;36844;51.898;-0.874;2022-07-29T08:48:42;100808.09;;;21.09;
46015;BME280;36844;51.898;-0.874;2022-07-29T08:51:28;100806.56;;;21.08;
46015;BME280;36844;51.898;-0.874;2022-07-29T08:54:16;100801.16;;;21.08;
46015;BME280;36844;51.898;-0.874;2022-07-29T08:57:02;100791.47;;;21.07;
46015;BME280;36844;51.898;-0.874;2022-07-29T08:59:48;100798.44;;;21.08;
46015;BME280;36844;51.898;-0.874;2022-07-29T09:02:35;100797.66;;;21.07;
46015;BME280;36844;51.898;-0.874;2022-07-29T09:05:23;100803.84;;;21.08;
46015;BME280;36844;51.898;-0.874;2022-07-29T09:08:09;100803.06;;;21.07;
46015;BME280;36844;51.898;-0.874;2022-07-29T09:10:56;100801.53;;;21.06;
46015;BME280;36844;51.898;-0.874;2022-07-29T09:13:41;100811.97;;;21.08;
46015;BME280;36844;51.898;-0.874;2022-07-29T09:16:43;100815.47;;;21.08;
46015;BME280;36844;51.898;-0.874;2022-07-29T09:19:30;100809.28;;;21.08;
46015;BME280;36844;51.898;-0.874;2022-07-29T09:22:28;100815.47;;;21.08;
46015;BME280;36844;51.898;-0.874;2022-07-29T09:25:13;100806.91;;;21.10;
46015;BME280;36844;51.898;-0.874;2022-07-29T09:28:09;100806.13;;;21.09;
46015;BME280;36844;51.898;-0.874;2022-07-29T09:30:55;100806.91;;;21.10;
46015;BME280;36844;51.898;-0.874;2022-07-29T09:33:41;100799.53;;;21.10;
46015;BME280;36844;51.898;-0.874;2022-07-29T09:36:27;100795.28;;;21.09;
46015;BME280;36844;51.898;-0.874;2022-07-29T09:39:13;100805.72;;;21.11;
46015;BME280;36844;51.898;-0.874;2022-07-29T09:42:01;100799.53;;;21.10;
46015;BME280;36844;51.898;-0.874;2022-07-29T09:44:47;100786.78;;;21.11;
46015;BME280;36844;51.898;-0.874;2022-07-29T09:47:46;100799.91;;;21.12;
46015;BME280;36844;51.898;-0.874;2022-07-29T09:50:38;100799.91;;;21.12;
46015;BME280;36844;51.898;-0.874;2022-07-29T09:56:15;100797.56;;;21.14;
46015;BME280;36844;51.898;-0.874;2022-07-29T09:59:07;100797.56;;;21.14;
46015;BME280;36844;51.898;-0.874;2022-07-29T10:01:54;100796.38;;;21.15;
46015;BME280;36844;51.898;-0.874;2022-07-29T10:04:39;100795.19;;;21.16;
46015;BME280;36844;51.898;-0.874;2022-07-29T10:07:25;100805.63;;;21.18;
46015;BME280;36844;51.898;-0.874;2022-07-29T10:10:17;100795.16;;;21.20;
46015;BME280;36844;51.898;-0.874;2022-07-29T10:13:05;100801.31;;;21.20;
46015;BME280;36844;51.898;-0.874;2022-07-29T10:15:50;100794.75;;;21.21;
46015;BME280;36844;51.898;-0.874;2022-07-29T10:18:40;100801.28;;;21.24;
46015;BME280;36844;51.898;-0.874;2022-07-29T10:21:25;100796.63;;;21.24;
46015;BME280;36844;51.898;-0.874;2022-07-29T10:24:11;100799.34;;;21.24;
46015;BME280;36844;51.898;-0.874;2022-07-29T10:26:59;100809.75;;;21.26;
46015;BME280;36844;51.898;-0.874;2022-07-29T10:29:45;100802.41;;;21.26;
46015;BME280;36844;51.898;-0.874;2022-07-29T10:32:36;100803.50;;;21.29;
46015;BME280;36844;51.898;-0.874;2022-07-29T10:38:30;100803.47;;;21.32;
46015;BME280;36844;51.898;-0.874;2022-07-29T10:44:23;100793.34;;;21.36;
46015;BME280;36844;51.898;-0.874;2022-07-29T10:47:20;100804.53;;;21.38;
46015;BME280;36844;51.898;-0.874;2022-07-29T10:50:06;100801.00;;;21.41;
46015;BME280;36844;51.898;-0.874;2022-07-29T10:52:55;100799.06;;;21.42;
46015;BME280;36844;51.898;-0.874;2022-07-29T10:55:42;100788.56;;;21.44;
46015;BME280;36844;51.898;-0.874;2022-07-29T10:58:29;100790.09;;;21.45;
46015;BME280;36844;51.898;-0.874;2022-07-29T11:01:28;100793.91;;;21.47;
46015;BME280;36844;51.898;-0.874;2022-07-29T11:04:14;100786.94;;;21.50;
46015;BME280;36844;51.898;-0.874;2022-07-29T11:10:21;100793.06;;;21.54;
46015;BME280;36844;51.898;-0.874;2022-07-29T11:13:02;100793.41;;;21.56;
46015;BME280;36844;51.898;-0.874;2022-07-29T11:15:54;100781.38;;;21.57;
46015;BME280;36844;51.898;-0.874;2022-07-29T11:21:44;100784.03;;;21.60;
46015;BME280;36844;51.898;-0.874;2022-07-29T11:24:34;100784.75;;;21.64;
46015;BME280;36844;51.898;-0.874;2022-07-29T11:27:21;100783.91;;;21.67;
46015;BME280;36844;51.898;-0.874;2022-07-29T11:30:08;100790.44;;;21.70;
46015;BME280;36844;51.898;-0.874;2022-07-29T11:32:54;100787.34;;;21.71;
46015;BME280;36844;51.898;-0.874;2022-07-29T11:35:40;100790.41;;;21.73;
46015;BME280;36844;51.898;-0.874;2022-07-29T11:38:26;100782.59;;;21.75;
46015;BME280;36844;51.898;-0.874;2022-07-29T11:44:03;100788.72;;;21.79;
46015;BME280;36844;51.898;-0.874;2022-07-29T11:46:51;100790.28;;;21.80;
46015;BME280;36844;51.898;-0.874;2022-07-29T11:49:37;100785.94;;;21.83;
46015;BME280;36844;51.898;-0.874;2022-07-29T11:52:39;100783.25;;;21.83;
46015;BME280;36844;51.898;-0.874;2022-07-29T11:55:30;100780.13;;;21.84;
46015;BME280;36844;51.898;-0.874;2022-07-29T11:58:21;100787.06;;;21.85;
46015;BME280;36844;51.898;-0.874;2022-07-29T12:01:07;100774.25;;;21.86;
46015;BME280;36844;51.898;-0.874;2022-07-29T12:04:07;100785.47;;;21.88;
46015;BME280;36844;51.898;-0.874;2022-07-29T12:06:53;100775.41;;;21.88;
46015;BME280;36844;51.898;-0.874;2022-07-29T12:09:39;100768.34;;;21.91;
46015;BME280;36844;51.898;-0.874;2022-07-29T12:12:24;100773.38;;;21.92;
46015;BME280;36844;51.898;-0.874;2022-07-29T12:15:11;100768.28;;;21.94;
46015;BME280;36844;51.898;-0.874;2022-07-29T12:17:56;100768.69;;;21.96;
46015;BME280;36844;51.898;-0.874;2022-07-29T12:20:42;100764.75;;;21.97;
46015;BME280;36844;51.898;-0.874;2022-07-29T12:23:28;100767.44;;;21.97;
46015;BME280;36844;51.898;-0.874;2022-07-29T12:26:14;100760.47;;;22.00;
46015;BME280;36844;51.898;-0.874;2022-07-29T12:28:59;100750.34;;;22.00;
46015;BME280;36844;51.898;-0.874;2022-07-29T12:31:45;100749.94;;;22.02;
46015;BME280;36844;51.898;-0.874;2022-07-29T12:34:31;100745.28;;;22.02;
46015;BME280;36844;51.898;-0.874;2022-07-29T12:37:17;100738.66;;;22.03;
46015;BME280;36844;51.898;-0.874;2022-07-29T12:40:03;100742.16;;;22.04;
46015;BME280;36844;51.898;-0.874;2022-07-29T12:46:13;100735.53;;;22.05;
46015;BME280;36844;51.898;-0.874;2022-07-29T12:48:59;100735.53;;;22.05;
46015;BME280;36844;51.898;-0.874;2022-07-29T12:51:48;100736.31;;;22.05;
46015;BME280;36844;51.898;-0.874;2022-07-29T12:54:34;100736.31;;;22.05;
46015;BME280;36844;51.898;-0.874;2022-07-29T12:57:20;100738.25;;;22.05;
46015;BME280;36844;51.898;-0.874;2022-07-29T13:00:06;100731.66;;;22.06;
46015;BME280;36844;51.898;-0.874;2022-07-29T13:02:59;100736.31;;;22.05;
46015;BME280;36844;51.898;-0.874;2022-07-29T13:05:45;100739.78;;;22.06;
46015;BME280;36844;51.898;-0.874;2022-07-29T13:08:31;100742.50;;;22.06;
46015;BME280;36844;51.898;-0.874;2022-07-29T13:11:37;100745.97;;;22.06;
46015;BME280;36844;51.898;-0.874;2022-07-29T13:17:19;100741.31;;;22.07;
46015;BME280;36844;51.898;-0.874;2022-07-29T13:20:06;100745.97;;;22.06;
46015;BME280;36844;51.898;-0.874;2022-07-29T13:22:54;100742.50;;;22.06;
46015;BME280;36844;51.898;-0.874;2022-07-29T13:25:40;100745.13;;;22.09;
46015;BME280;36844;51.898;-0.874;2022-07-29T13:28:26;100745.91;;;22.10;
46015;BME280;36844;51.898;-0.874;2022-07-29T13:31:11;100750.94;;;22.12;
46015;BME280;36844;51.898;-0.874;2022-07-29T13:33:57;100748.53;;;22.14;
46015;BME280;36844;51.898;-0.874;2022-07-29T13:36:42;100741.94;;;22.15;
46015;BME280;36844;51.898;-0.874;2022-07-29T13:39:28;100740.78;;;22.16;
46015;BME280;36844;51.898;-0.874;2022-07-29T13:42:13;100741.50;;;22.16;
46015;BME280;36844;51.898;-0.874;2022-07-29T13:44:59;100747.31;;;22.18;
46015;BME280;36844;51.898;-0.874;2022-07-29T13:47:45;100743.41;;;22.19;
46015;BME280;36844;51.898;-0.874;2022-07-29T13:50:31;100741.47;;;22.20;
46015;BME280;36844;51.898;-0.874;2022-07-29T13:53:17;100733.66;;;22.22;
46015;BME280;36844;51.898;-0.874;2022-07-29T13:56:02;100740.59;;;22.23;
46015;BME280;36844;51.898;-0.874;2022-07-29T13:58:51;100733.25;;;22.23;
46015;BME280;36844;51.898;-0.874;2022-07-29T14:01:36;100747.56;;;22.24;
46015;BME280;36844;51.898;-0.874;2022-07-29T14:04:22;100740.97;;;22.25;
46015;BME280;36844;51.898;-0.874;2022-07-29T14:07:11;100744.41;;;22.25;
46015;BME280;36844;51.898;-0.874;2022-07-29T14:09:56;100741.31;;;22.27;
46015;BME280;36844;51.898;-0.874;2022-07-29T14:12:42;100741.31;;;22.27;
46015;BME280;36844;51.898;-0.874;2022-07-29T14:15:28;100747.06;;;22.29;
46015;BME280;36844;51.898;-0.874;2022-07-29T14:18:13;100747.84;;;22.29;
46015;BME280;36844;51.898;-0.874;2022-07-29T14:20:59;100748.19;;;22.31;
46015;BME280;36844;51.898;-0.874;2022-07-29T14:23:44;100748.94;;;22.32;
46015;BME280;36844;51.898;-0.874;2022-07-29T14:26:30;100745.03;;;22.33;
46015;BME280;36844;51.898;-0.874;2022-07-29T14:29:15;100742.69;;;22.35;
46015;BME280;36844;51.898;-0.874;2022-07-29T14:32:01;100731.81;;;22.35;
46015;BME280;36844;51.898;-0.874;2022-07-29T14:34:47;100734.13;;;22.36;
46015;BME280;36844;51.898;-0.874;2022-07-29T14:37:32;100732.91;;;22.37;
46015;BME280;36844;51.898;-0.874;2022-07-29T14:40:19;100727.84;;;22.39;
46015;BME280;36844;51.898;-0.874;2022-07-29T14:43:05;100720.81;;;22.42;
46015;BME280;36844;51.898;-0.874;2022-07-29T14:45:50;100714.94;;;22.43;
46015;BME280;36844;51.898;-0.874;2022-07-29T14:48:36;100712.16;;;22.47;
46015;BME280;36844;51.898;-0.874;2022-07-29T14:51:22;100707.50;;;22.47;
46015;BME280;36844;51.898;-0.874;2022-07-29T14:54:07;100709.38;;;22.50;
46015;BME280;36844;51.898;-0.874;2022-07-29T14:56:53;100708.97;;;22.52;
46015;BME280;36844;51.898;-0.874;2022-07-29T14:59:42;100710.47;;;22.53;
46015;BME280;36844;51.898;-0.874;2022-07-29T15:02:27;100717.03;;;22.55;
46015;BME280;36844;51.898;-0.874;2022-07-29T15:05:13;100725.84;;;22.59;
46015;BME280;36844;51.898;-0.874;2022-07-29T15:07:58;100721.53;;;22.62;
46015;BME280;36844;51.898;-0.874;2022-07-29T15:10:44;100734.25;;;22.65;
46015;BME280;36844;51.898;-0.874;2022-07-29T15:13:30;100731.47;;;22.68;
46015;BME280;36844;51.898;-0.874;2022-07-29T15:16:15;100731.03;;;22.70;
46015;BME280;36844;51.898;-0.874;2022-07-29T15:19:02;100730.22;;;22.73;
46015;BME280;36844;51.898;-0.874;2022-07-29T15:21:47;100728.59;;;22.75;
46015;BME280;36844;51.898;-0.874;2022-07-29T15:24:33;100731.22;;;22.79;
46015;BME280;36844;51.898;-0.874;2022-07-29T15:27:18;100720.69;;;22.81;
46015;BME280;36844;51.898;-0.874;2022-07-29T15:30:04;100719.06;;;22.83;
46015;BME280;36844;51.898;-0.874;2022-07-29T15:32:50;100713.25;;;22.85;
46015;BME280;36844;51.898;-0.874;2022-07-29T15:35:36;100717.38;;;22.89;
46015;BME280;36844;51.898;-0.874;2022-07-29T15:38:21;100719.69;;;22.91;
46015;BME280;36844;51.898;-0.874;2022-07-29T15:41:07;100714.16;;;22.94;
46015;BME280;36844;51.898;-0.874;2022-07-29T15:43:53;100715.25;;;22.97;
46015;BME280;36844;51.898;-0.874;2022-07-29T15:46:38;100710.25;;;22.95;
46015;BME280;36844;51.898;-0.874;2022-07-29T15:49:43;100714.44;;;23.00;
46015;BME280;36844;51.898;-0.874;2022-07-29T15:52:28;100708.53;;;23.01;
46015;BME280;36844;51.898;-0.874;2022-07-29T15:55:14;100712.78;;;23.02;